Time;durP1;ratioP1;P1;durP2;ratioP2;P2;SDS_P1;SDS_P2;PMS_P1;PMS_P2;Temp;Humidity;BMP_temperature;BMP_pressure;BME280_temperature;BME280_humidity;BME280_pressure;Samples;Min_cycle;Max_cycle;Signal;HPM_P1;HPM_P2
2023/07/27 00:00:09;;;;;;;2.70;2.50;;;;;;;12.80;80.58;99314.33;218301;1254;139914;-64
2023/07/27 00:05:35;;;;;;;1.80;1.70;;;;;;;12.68;80.43;99307.88;218425;1254;139796;-65
2023/07/27 00:10:41;;;;;;;2.30;2.10;;;;;;;12.58;80.62;99311.23;219038;1254;140806;-65
2023/07/27 00:15:47;;;;;;;2.40;2.20;;;;;;;12.46;80.51;99306.05;218255;1254;140352;-64
2023/07/27 00:20:51;;;;;;;3.40;3.10;;;;;;;12.34;80.45;99314.94;218401;1254;142948;-65
2023/07/27 00:25:56;;;;;;;4.10;2.60;;;;;;;12.21;80.17;99318.58;217594;1255;461544;-67
2023/07/27 00:31:00;;;;;;;2.50;2.30;;;;;;;12.13;80.77;99320.83;218951;1254;140337;-68
2023/07/27 00:36:05;;;;;;;5.10;2.30;;;;;;;12.01;80.19;99320.65;218325;1254;140368;-66
2023/07/27 00:41:10;;;;;;;2.30;2.10;;;;;;;11.86;80.16;99323.14;218254;1254;140513;-67
2023/07/27 00:46:15;;;;;;;3.80;2.40;;;;;;;11.76;80.05;99329.97;217937;1259;141022;-65
2023/07/27 00:51:20;;;;;;;3.70;3.00;;;;;;;11.65;80.26;99330.79;218100;1255;141564;-65
2023/07/27 00:56:25;;;;;;;3.10;1.80;;;;;;;11.54;80.25;99329.20;217906;1254;140018;-66
2023/07/27 01:01:30;;;;;;;2.50;2.30;;;;;;;11.36;80.00;99330.11;219230;1254;140521;-66
2023/07/27 01:06:34;;;;;;;2.80;2.60;;;;;;;11.20;79.71;99322.88;218452;1254;140679;-66
2023/07/27 01:11:48;;;;;;;2.30;2.20;;;;;;;11.04;80.00;99320.80;217850;1257;140942;-66
2023/07/27 01:17:07;;;;;;;2.60;2.00;;;;;;;10.92;80.18;99328.23;220589;1255;140118;-66
2023/07/27 01:22:21;;;;;;;2.40;2.30;;;;;;;10.80;80.11;99325.56;220488;1258;141093;-67
2023/07/27 01:27:44;;;;;;;2.20;2.00;;;;;;;10.73;80.02;99333.52;220653;1257;140136;-65
2023/07/27 01:32:57;;;;;;;2.60;2.20;;;;;;;10.70;80.39;99336.15;220187;1257;141614;-65
2023/07/27 01:38:03;;;;;;;2.60;2.20;;;;;;;10.71;80.74;99331.36;219247;1257;140689;-65
2023/07/27 01:43:10;;;;;;;3.20;2.70;;;;;;;10.71;80.63;99325.77;219434;1257;141134;-65
2023/07/27 01:48:17;;;;;;;9.00;2.10;;;;;;;10.72;80.87;99327.70;217774;1257;139999;-65
2023/07/27 01:53:24;;;;;;;2.90;2.70;;;;;;;10.70;81.06;99333.48;217500;1257;140409;-65
2023/07/27 01:58:30;;;;;;;3.60;3.30;;;;;;;10.71;81.41;99339.61;218044;1257;139811;-65
2023/07/27 02:03:36;;;;;;;12.90;2.40;;;;;;;10.70;81.67;99335.98;217733;1257;145268;-65
2023/07/27 02:08:40;;;;;;;4.40;3.40;;;;;;;10.68;81.53;99342.95;218519;1254;139971;-66
2023/07/27 02:14:17;;;;;;;6.70;3.50;;;;;;;10.67;81.74;99338.02;218208;1260;140640;-66
2023/07/27 02:19:30;;;;;;;3.90;3.10;;;;;;;10.67;81.83;99335.48;219269;1254;141457;-67
2023/07/27 02:24:35;;;;;;;2.70;2.50;;;;;;;10.64;81.92;99341.98;218256;1254;140319;-68
2023/07/27 02:29:40;;;;;;;4.70;2.70;;;;;;;10.59;81.63;99350.86;218080;1255;140094;-66
2023/07/27 02:34:44;;;;;;;9.90;2.60;;;;;;;10.54;81.69;99361.92;218997;1259;140389;-67
2023/07/27 02:39:48;;;;;;;3.80;3.20;;;;;;;10.51;81.78;99372.63;219353;1255;140274;-67
2023/07/27 02:44:52;;;;;;;3.60;2.80;;;;;;;10.48;81.86;99378.18;219478;1254;141170;-69
2023/07/27 02:49:57;;;;;;;5.50;3.50;;;;;;;10.46;82.03;99384.70;218390;1254;140226;-68
2023/07/27 02:55:01;;;;;;;5.30;2.90;;;;;;;10.44;81.99;99387.40;217715;1260;139708;-66
2023/07/27 03:00:08;;;;;;;3.60;3.20;;;;;;;10.40;81.94;99388.88;220726;1254;141227;-67
2023/07/27 03:05:14;;;;;;;;;;;;;;;10.33;81.66;99396.88;218154;1258;141877;-65
2023/07/27 03:10:18;;;;;;;3.60;2.70;;;;;;;10.24;81.63;99396.27;221188;1258;126659;-65
2023/07/27 03:15:23;;;;;;;20.30;3.30;;;;;;;10.22;81.73;99401.06;220679;1258;141466;-65
2023/07/27 03:20:27;;;;;;;8.90;4.10;;;;;;;10.20;81.66;99399.18;220052;1254;140727;-64
2023/07/27 03:25:33;;;;;;;3.70;3.00;;;;;;;10.18;81.66;99407.44;220739;1258;140678;-64
2023/07/27 03:30:38;;;;;;;3.70;2.50;;;;;;;10.18;81.55;99414.64;219562;1259;140581;-66
2023/07/27 03:35:43;;;;;;;6.80;3.30;;;;;;;10.21;81.94;99418.55;218308;1254;140833;-67
2023/07/27 03:40:47;;;;;;;3.40;3.10;;;;;;;10.26;81.88;99418.23;217515;1255;155530;-69
2023/07/27 03:45:54;;;;;;;7.30;3.70;;;;;;;10.33;82.23;99418.40;219887;1255;141484;-68
2023/07/27 03:51:01;;;;;;;;;;;;;;;10.39;82.18;99426.77;218303;1254;140009;-66
2023/07/27 03:56:07;;;;;;;4.30;3.70;;;;;;;10.37;82.20;99426.20;218323;1259;126668;-66
2023/07/27 04:01:12;;;;;;;3.80;2.60;;;;;;;10.49;82.49;99423.30;218656;1254;140737;-64
2023/07/27 04:06:16;;;;;;;6.10;3.20;;;;;;;10.71;82.24;99424.82;218612;1258;139865;-67
2023/07/27 04:11:24;;;;;;;5.40;3.20;;;;;;;10.81;82.26;99431.86;217699;1257;140202;-66
2023/07/27 04:16:29;;;;;;;7.20;3.30;;;;;;;10.95;82.28;99433.30;217933;1259;139702;-66
2023/07/27 04:21:33;;;;;;;4.00;2.60;;;;;;;11.23;82.16;99429.52;218171;1255;141790;-65
2023/07/27 04:27:16;;;;;;;24.00;5.00;;;;;;;11.58;81.89;99428.95;218578;1259;139888;-68
2023/07/27 04:32:38;;;;;;;4.10;2.90;;;;;;;11.85;81.74;99424.98;218404;1255;143176;-67
2023/07/27 04:37:43;;;;;;;2.70;2.40;;;;;;;11.98;81.72;99426.93;218597;1255;140286;-67
2023/07/27 04:42:47;;;;;;;21.30;3.70;;;;;;;12.16;81.43;99425.79;218234;1258;139898;-67
2023/07/27 04:47:53;;;;;;;5.00;3.20;;;;;;;12.40;81.17;99434.14;218262;1254;143715;-67
2023/07/27 04:52:57;;;;;;;2.50;2.30;;;;;;;12.72;81.00;99434.09;218517;1254;141134;-67
2023/07/27 04:58:01;;;;;;;3.50;2.30;;;;;;;13.20;80.22;99429.45;219143;1254;140781;-67
2023/07/27 05:03:05;;;;;;;4.10;2.30;;;;;;;13.38;79.79;99434.22;220415;1254;141103;-68
2023/07/27 05:08:10;;;;;;;3.10;2.60;;;;;;;13.51;79.48;99429.50;220780;1254;139896;-66
2023/07/27 05:13:14;;;;;;;3.80;3.30;;;;;;;13.54;79.46;99428.55;220150;1254;140861;-67
2023/07/27 05:18:18;;;;;;;5.50;3.50;;;;;;;13.59;79.20;99423.33;220802;1254;140345;-67
2023/07/27 05:23:23;;;;;;;2.90;2.50;;;;;;;14.50;78.15;99423.87;220144;1254;141008;-66
2023/07/27 05:28:27;;;;;;;3.10;2.80;;;;;;;17.83;73.67;99423.61;219287;1254;140048;-64
2023/07/27 05:33:32;;;;;;;3.20;2.90;;;;;;;21.98;69.78;99430.66;219486;1254;140042;-65
2023/07/27 05:38:37;;;;;;;5.10;3.20;;;;;;;25.59;65.02;99437.38;217697;1255;140049;-63
2023/07/27 05:43:42;;;;;;;3.10;2.50;;;;;;;28.32;60.08;99447.06;218765;1254;140498;-63
2023/07/27 05:48:46;;;;;;;11.90;2.70;;;;;;;30.51;55.83;99447.55;218640;1258;139263;-63
2023/07/27 05:53:52;;;;;;;3.10;1.70;;;;;;;32.25;51.49;99444.95;218723;1254;139930;-63
2023/07/27 05:58:57;;;;;;;2.40;2.30;;;;;;;33.42;47.78;99451.03;218248;1257;139819;-65
2023/07/27 06:04:04;;;;;;;1.80;1.70;;;;;;;34.62;45.50;99446.42;218437;1254;139026;-68
2023/07/27 06:09:14;;;;;;;1.50;1.30;;;;;;;33.29;44.43;99446.46;218561;1254;139122;-66
2023/07/27 06:14:19;;;;;;;1.40;1.20;;;;;;;32.82;42.47;99447.48;217570;1260;139013;-66
2023/07/27 06:19:24;;;;;;;3.40;2.10;;;;;;;32.96;41.42;99444.36;217825;1260;141011;-65
2023/07/27 06:24:29;;;;;;;1.30;1.20;;;;;;;33.80;40.16;99443.27;218460;1259;140012;-64
2023/07/27 06:29:34;;;;;;;2.80;1.20;;;;;;;32.94;39.46;99444.60;218722;1257;140342;-65
2023/07/27 06:34:42;;;;;;;4.60;1.60;;;;;;;31.35;39.36;99438.89;218820;1254;138958;-65
2023/07/27 06:39:47;;;;;;;2.00;1.50;;;;;;;29.86;40.11;99438.08;218280;1254;139100;-66
2023/07/27 06:44:51;;;;;;;1.40;1.20;;;;;;;28.50;40.45;99439.13;219842;1257;138722;-65
2023/07/27 06:49:55;;;;;;;2.00;1.60;;;;;;;27.24;41.80;99432.80;220096;1254;140421;-64
2023/07/27 06:54:59;;;;;;;2.60;2.40;;;;;;;26.80;42.07;99430.41;218463;1259;139987;-64
2023/07/27 07:00:04;;;;;;;2.00;1.70;;;;;;;26.73;42.60;99431.16;220777;1255;139391;-67
2023/07/27 07:05:08;;;;;;;2.50;2.30;;;;;;;26.56;42.73;99440.55;220744;1254;139362;-69
2023/07/27 07:10:12;;;;;;;2.40;1.50;;;;;;;27.39;42.71;99439.59;220482;1255;139920;-67
2023/07/27 07:15:17;;;;;;;14.30;1.70;;;;;;;28.92;42.22;99437.67;220668;1255;139897;-67
2023/07/27 07:20:21;;;;;;;;;;;;;;;30.15;40.63;99440.23;218926;1256;139792;-67
2023/07/27 07:25:25;;;;;;;2.40;2.10;;;;;;;30.24;39.84;99438.88;220945;1256;126201;-68
2023/07/27 07:30:31;;;;;;;3.20;1.80;;;;;;;30.19;40.28;99438.66;220109;1257;141410;-72
2023/07/27 07:36:03;;;;;;;1.60;1.50;;;;;;;29.98;40.01;99437.71;217958;1259;386136;-71
2023/07/27 07:41:07;;;;;;;2.70;1.90;;;;;;;29.71;39.93;99433.41;219812;1256;140206;-72
2023/07/27 07:46:12;;;;;;;2.30;2.10;;;;;;;29.35;40.13;99431.72;217947;1255;139699;-68
2023/07/27 07:51:17;;;;;;;11.30;1.80;;;;;;;28.93;40.46;99432.56;218054;1257;139684;-68
2023/07/27 07:56:21;;;;;;;2.20;1.40;;;;;;;28.56;40.22;99431.90;218705;1256;139999;-70
2023/07/27 08:01:31;;;;;;;4.20;1.70;;;;;;;28.12;40.19;99425.89;218660;1256;139588;-70
2023/07/27 08:06:42;;;;;;;2.50;1.70;;;;;;;28.00;40.41;99422.04;217873;1257;139236;-66
2023/07/27 08:11:47;;;;;;;1.10;1.00;;;;;;;27.47;40.03;99422.05;218803;1254;140193;-69
2023/07/27 08:16:53;;;;;;;2.70;1.80;;;;;;;27.18;40.69;99419.30;217940;1256;139080;-66
2023/07/27 08:21:57;;;;;;;3.10;1.60;;;;;;;27.09;40.66;99412.45;220113;1254;140099;-66
2023/07/27 08:27:04;;;;;;;1.50;1.40;;;;;;;26.86;40.85;99403.79;217913;1257;140036;-68
2023/07/27 08:32:09;;;;;;;1.40;1.30;;;;;;;26.91;40.56;99402.16;219168;1254;139136;-70
2023/07/27 08:37:13;;;;;;;2.10;1.40;;;;;;;26.83;40.88;99404.63;219876;1256;140193;-70
2023/07/27 08:42:18;;;;;;;1.50;1.10;;;;;;;26.92;41.21;99405.71;220356;1255;141573;-69
2023/07/27 08:47:22;;;;;;;2.10;1.30;;;;;;;26.87;41.25;99404.12;219404;1256;140139;-67
2023/07/27 08:52:27;;;;;;;1.50;1.40;;;;;;;26.74;40.99;99403.05;220499;1256;139175;-67
2023/07/27 08:57:31;;;;;;;2.10;1.50;;;;;;;26.30;40.72;99400.81;218131;1256;139389;-65
2023/07/27 09:02:34;;;;;;;2.20;1.60;;;;;;;26.15;41.33;99398.89;220616;1255;139725;-66
2023/07/27 09:07:38;;;;;;;1.20;1.00;;;;;;;26.11;40.98;99398.06;220674;1254;139592;-68
2023/07/27 09:12:43;;;;;;;1.70;1.40;;;;;;;25.71;40.75;99398.19;220455;1256;139374;-64
2023/07/27 09:17:47;;;;;;;1.10;1.10;;;;;;;25.40;41.05;99389.86;220185;1256;235128;-66
2023/07/27 09:22:55;;;;;;;1.30;1.20;;;;;;;25.82;41.67;99389.57;220260;1256;141151;-67
2023/07/27 09:27:59;;;;;;;4.60;1.70;;;;;;;25.44;40.70;99393.52;218802;1254;138939;-66
2023/07/27 09:33:05;;;;;;;4.10;2.20;;;;;;;24.83;41.27;99385.73;219060;1256;140676;-65
2023/07/27 09:38:09;;;;;;;2.70;1.40;;;;;;;24.56;41.62;99383.60;217898;1257;139420;-67
2023/07/27 09:43:14;;;;;;;2.70;1.70;;;;;;;24.10;41.85;99381.77;218768;1256;139645;-67
2023/07/27 09:48:19;;;;;;;1.30;1.30;;;;;;;24.08;42.24;99378.11;219583;1254;139779;-65
2023/07/27 09:53:24;;;;;;;1.70;1.60;;;;;;;24.27;42.37;99371.90;219586;1255;140168;-66
2023/07/27 09:58:29;;;;;;;2.90;1.50;;;;;;;24.63;42.54;99367.05;219247;1256;140115;-66
2023/07/27 10:03:36;;;;;;;1.20;1.00;;;;;;;24.85;42.73;99359.46;218359;1254;141457;-65
2023/07/27 10:08:47;;;;;;;2.50;1.70;;;;;;;25.38;42.48;99351.61;218580;1254;139281;-66
2023/07/27 10:13:51;;;;;;;1.90;1.70;;;;;;;25.57;42.26;99348.31;218163;1254;139102;-66
2023/07/27 10:18:55;;;;;;;1.90;1.80;;;;;;;25.80;41.56;99346.85;218254;1254;139280;-65
2023/07/27 10:24:05;;;;;;;1.60;1.50;;;;;;;25.45;41.24;99350.74;218873;1254;139622;-66
2023/07/27 10:29:15;;;;;;;1.50;1.40;;;;;;;25.65;41.02;99353.24;219039;1254;140234;-66
2023/07/27 10:34:21;;;;;;;1.70;1.60;;;;;;;25.97;40.49;99345.60;219612;1254;139437;-66
2023/07/27 10:39:38;;;;;;;1.70;1.30;;;;;;;25.61;39.62;99346.39;218568;1256;139084;-65
2023/07/27 10:44:58;;;;;;;1.40;1.30;;;;;;;24.93;40.04;99347.66;219396;1254;139886;-65
2023/07/27 10:50:04;;;;;;;2.60;1.50;;;;;;;25.17;40.35;99344.55;220884;1254;139791;-66
2023/07/27 10:55:08;;;;;;;1.70;1.60;;;;;;;25.67;40.38;99340.33;220217;1256;139675;-65
2023/07/27 11:00:13;;;;;;;1.50;1.30;;;;;;;25.94;39.67;99336.10;219800;1254;139675;-66
2023/07/27 11:05:18;;;;;;;3.80;1.40;;;;;;;26.19;39.52;99325.71;220671;1254;139506;-66
2023/07/27 11:10:30;;;;;;;1.70;1.30;;;;;;;26.49;39.03;99323.13;219511;1254;139829;-66
2023/07/27 11:15:35;;;;;;;1.30;1.20;;;;;;;26.21;38.52;99321.02;218363;1254;140269;-66
2023/07/27 11:20:42;;;;;;;2.40;1.30;;;;;;;26.29;38.92;99312.04;220720;1254;140076;-69
2023/07/27 11:25:47;;;;;;;1.20;1.10;;;;;;;26.68;38.42;99298.00;220184;1254;236210;-69
2023/07/27 11:30:52;;;;;;;1.40;1.30;;;;;;;26.85;37.62;99302.08;217837;1257;139446;-68
2023/07/27 11:35:56;;;;;;;1.60;1.50;;;;;;;26.81;37.37;99291.66;219477;1256;139523;-68
2023/07/27 11:41:01;;;;;;;1.50;1.40;;;;;;;26.45;37.16;99286.05;217887;1254;139482;-65
2023/07/27 11:46:26;;;;;;;3.20;1.40;;;;;;;25.54;36.89;99280.45;218710;1258;139998;-66
2023/07/27 11:51:33;;;;;;;2.40;2.10;;;;;;;24.88;37.53;99277.80;218043;1254;140243;-66
2023/07/27 11:56:49;;;;;;;2.30;1.50;;;;;;;24.86;38.30;99273.24;217771;1254;139641;-65
2023/07/27 12:01:55;;;;;;;1.30;1.20;;;;;;;25.20;38.61;99262.59;218369;1254;139345;-66
2023/07/27 12:07:00;;;;;;;1.60;1.50;;;;;;;25.52;38.37;99260.36;217816;1259;139369;-65
2023/07/27 12:12:04;;;;;;;1.40;1.30;;;;;;;25.54;38.03;99248.79;218399;1255;139258;-65
2023/07/27 12:17:12;;;;;;;0.80;0.80;;;;;;;25.59;37.57;99244.35;218080;1258;140437;-66
2023/07/27 12:22:18;;;;;;;1.60;1.20;;;;;;;25.34;37.15;99244.79;217713;1254;634901;-66
2023/07/27 12:27:26;;;;;;;4.10;1.70;;;;;;;25.24;36.95;99240.48;218065;1254;139906;-65
2023/07/27 12:32:30;;;;;;;1.40;1.30;;;;;;;25.34;36.85;99233.73;218568;1254;139997;-65
2023/07/27 12:37:36;;;;;;;1.70;1.10;;;;;;;25.46;36.85;99225.11;217917;1254;139134;-66
2023/07/27 12:42:43;;;;;;;1.60;1.50;;;;;;;25.54;36.75;99219.02;217825;1258;139053;-65
2023/07/27 12:47:53;;;;;;;1.60;1.50;;;;;;;25.59;36.37;99215.41;219079;1255;140457;-65
2023/07/27 12:52:57;;;;;;;1.10;1.10;;;;;;;25.58;36.04;99212.50;218528;1255;141662;-66
2023/07/27 12:58:01;;;;;;;2.60;1.50;;;;;;;25.52;36.04;99208.90;220701;1254;139915;-66
2023/07/27 13:03:04;;;;;;;2.00;1.80;;;;;;;25.70;36.23;99209.89;220784;1254;140934;-69
2023/07/27 13:08:08;;;;;;;1.30;1.10;;;;;;;26.00;36.27;99205.56;218168;1254;139957;-68
2023/07/27 13:13:12;;;;;;;1.50;1.40;;;;;;;25.71;35.75;99198.13;219804;1254;140115;-69
2023/07/27 13:18:18;;;;;;;4.60;1.80;;;;;;;25.37;35.96;99202.15;220494;1254;139230;-69
2023/07/27 13:23:21;;;;;;;1.50;1.30;;;;;;;25.50;35.94;99203.30;219949;1256;139514;-67
2023/07/27 13:28:25;;;;;;;1.50;1.20;;;;;;;25.84;35.72;99198.10;219660;1254;140117;-68
2023/07/27 13:33:29;;;;;;;3.80;1.70;;;;;;;25.88;35.63;99193.70;218808;1254;140332;-65
2023/07/27 13:38:32;;;;;;;5.20;1.20;;;;;;;25.77;35.37;99190.19;219673;1254;140297;-66
2023/07/27 13:43:36;;;;;;;1.60;1.50;;;;;;;25.95;35.25;99184.74;218464;1254;139334;-65
2023/07/27 13:48:41;;;;;;;4.20;1.70;;;;;;;25.88;34.95;99183.80;218839;1254;140268;-66
2023/07/27 13:53:44;;;;;;;1.30;1.20;;;;;;;26.03;34.81;99176.52;218242;1254;139192;-69
2023/07/27 13:58:48;;;;;;;1.40;1.30;;;;;;;26.31;34.84;99171.64;217871;1254;139736;-66
2023/07/27 14:03:52;;;;;;;17.40;2.60;;;;;;;26.40;34.42;99172.11;218728;1256;139786;-66
2023/07/27 14:08:58;;;;;;;1.50;1.40;;;;;;;26.29;33.74;99171.75;217896;1254;139411;-66
2023/07/27 14:14:02;;;;;;;1.90;1.30;;;;;;;26.10;33.72;99173.58;217772;1254;140242;-66
2023/07/27 14:19:06;;;;;;;1.30;1.20;;;;;;;25.99;33.68;99166.84;218731;1257;139880;-66
2023/07/27 14:24:09;;;;;;;3.00;1.80;;;;;;;25.71;33.81;99167.10;218044;1254;139467;-66
2023/07/27 14:29:13;;;;;;;1.60;1.50;;;;;;;25.68;33.66;99166.16;218696;1254;139301;-66
2023/07/27 14:34:20;;;;;;;1.20;1.10;;;;;;;25.62;33.78;99165.54;218401;1254;140552;-68
2023/07/27 14:39:27;;;;;;;1.70;1.50;;;;;;;25.48;33.68;99164.50;217690;1254;141985;-66
2023/07/27 14:44:35;;;;;;;1.20;1.10;;;;;;;25.21;33.91;99163.41;217892;1258;139078;-66
2023/07/27 14:49:45;;;;;;;1.70;1.40;;;;;;;24.98;34.12;99157.65;218452;1254;140202;-66
2023/07/27 14:55:03;;;;;;;1.30;1.20;;;;;;;24.96;34.43;99157.61;218408;1254;139732;-66
2023/07/27 15:00:12;;;;;;;1.90;1.40;;;;;;;25.02;34.41;99149.77;219493;1256;139477;-67
2023/07/27 15:05:26;;;;;;;1.60;1.20;;;;;;;25.03;34.24;99149.73;220734;1257;139573;-68
2023/07/27 15:10:30;;;;;;;3.20;1.20;;;;;;;25.08;34.12;99152.28;220552;1254;139242;-67
2023/07/27 15:15:36;;;;;;;1.30;1.20;;;;;;;25.10;33.82;99153.90;220181;1256;139683;-67
2023/07/27 15:20:56;;;;;;;1.50;1.40;;;;;;;24.87;34.08;99157.70;220015;1254;139580;-67
2023/07/27 15:26:07;;;;;;;12.50;1.90;;;;;;;24.56;34.35;99152.61;217613;1259;139054;-66
2023/07/27 15:31:13;;;;;;;1.90;1.70;;;;;;;24.43;34.61;99147.77;218291;1254;142048;-67
2023/07/27 15:36:18;;;;;;;1.50;1.40;;;;;;;24.30;35.01;99144.55;218606;1257;139547;-66
2023/07/27 15:41:22;;;;;;;3.80;3.50;;;;;;;24.21;35.03;99144.53;218124;1254;139941;-66
2023/07/27 15:46:27;;;;;;;5.50;5.00;;;;;;;24.11;34.91;99147.72;219495;1254;139427;-66
2023/07/27 15:51:30;;;;;;;2.30;1.60;;;;;;;24.08;35.13;99138.82;218642;1254;139300;-66
2023/07/27 15:56:34;;;;;;;3.70;2.60;;;;;;;24.05;35.12;99136.00;218466;1254;142852;-67
2023/07/27 16:01:38;;;;;;;2.10;1.50;;;;;;;23.92;35.48;99128.92;218295;1254;139801;-66
2023/07/27 16:06:42;;;;;;;3.50;1.90;;;;;;;23.85;35.62;99126.06;218121;1254;139829;-66
2023/07/27 16:11:49;;;;;;;1.50;1.40;;;;;;;23.82;35.74;99122.08;219708;1257;140523;-66
2023/07/27 16:16:54;;;;;;;3.70;1.50;;;;;;;23.70;35.77;99115.98;218305;1258;139918;-66
2023/07/27 16:21:59;;;;;;;1.80;1.40;;;;;;;23.36;35.73;99116.77;219018;1258;139312;-66
2023/07/27 16:27:04;;;;;;;1.20;1.20;;;;;;;23.19;36.33;99109.27;219288;1256;140458;-66
2023/07/27 16:32:11;;;;;;;2.30;1.50;;;;;;;22.96;36.38;99111.52;217982;1254;140532;-65
2023/07/27 16:37:17;;;;;;;0.90;0.90;;;;;;;22.89;37.01;99117.73;219456;1254;139710;-67
2023/07/27 16:42:23;;;;;;;1.60;1.10;;;;;;;22.79;36.93;99125.39;219513;1254;138991;-65
2023/07/27 16:47:28;;;;;;;1.20;1.10;;;;;;;22.58;37.03;99118.49;219035;1257;140027;-65
2023/07/27 16:52:33;;;;;;;0.90;0.90;;;;;;;22.47;37.41;99117.09;220646;1257;139022;-66
2023/07/27 16:57:37;;;;;;;1.00;1.00;;;;;;;22.38;37.75;99114.32;220000;1257;139168;-66
2023/07/27 17:02:42;;;;;;;8.00;1.90;;;;;;;22.34;37.90;99111.02;220794;1254;139419;-67
2023/07/27 17:07:47;;;;;;;;;;;;;;;22.33;38.78;99113.70;220853;1254;139686;-66
2023/07/27 17:12:51;;;;;;;1.00;1.00;;;;;;;22.27;39.85;99119.00;221412;1254;126193;-66
2023/07/27 17:17:58;;;;;;;1.00;1.00;;;;;;;22.12;39.96;99111.06;220818;1255;139323;-67
2023/07/27 17:23:03;;;;;;;1.60;1.40;;;;;;;21.97;40.57;99108.53;219754;1255;139317;-66
2023/07/27 17:28:08;;;;;;;2.40;1.40;;;;;;;21.85;41.56;99112.51;219321;1254;139601;-66
2023/07/27 17:33:13;;;;;;;1.50;1.30;;;;;;;21.72;42.43;99110.89;218122;1254;139266;-65
2023/07/27 17:38:22;;;;;;;3.00;1.80;;;;;;;21.56;43.33;99116.92;218749;1259;141328;-66
2023/07/27 17:43:27;;;;;;;1.90;1.60;;;;;;;21.41;44.50;99114.88;219098;1254;139347;-66
2023/07/27 17:48:33;;;;;;;1.40;1.30;;;;;;;21.25;45.85;99120.91;219191;1254;139538;-66
2023/07/27 17:53:41;;;;;;;3.50;1.40;;;;;;;21.05;46.63;99116.91;218071;1254;139959;-65
2023/07/27 17:58:47;;;;;;;1.50;1.40;;;;;;;20.90;47.40;99114.03;218711;1254;139414;-65
2023/07/27 18:03:54;;;;;;;1.20;1.10;;;;;;;20.74;48.61;99111.89;217949;1256;140633;-65
2023/07/27 18:08:59;;;;;;;1.80;1.70;;;;;;;20.56;49.28;99115.04;218365;1254;139808;-65
2023/07/27 18:14:04;;;;;;;1.00;1.00;;;;;;;20.36;49.94;99109.59;218084;1254;139264;-66
2023/07/27 18:19:09;;;;;;;1.00;0.80;;;;;;;20.03;50.29;99104.65;218304;1254;139162;-66
2023/07/27 18:24:14;;;;;;;1.30;1.20;;;;;;;19.66;50.65;99103.83;218251;1254;139390;-66
2023/07/27 18:29:31;;;;;;;2.20;1.30;;;;;;;19.33;51.05;99104.95;217938;1258;139394;-65
2023/07/27 18:34:35;;;;;;;1.30;1.30;;;;;;;19.04;51.65;99103.66;219236;1254;139443;-65
2023/07/27 18:39:39;;;;;;;2.80;1.60;;;;;;;18.86;52.53;99105.04;218892;1254;139549;-65
2023/07/27 18:44:45;;;;;;;1.60;1.50;;;;;;;18.76;52.86;99106.39;218993;1254;139985;-65
2023/07/27 18:49:49;;;;;;;3.00;1.40;;;;;;;18.49;52.64;99112.94;218020;1254;139653;-67
2023/07/27 18:54:54;;;;;;;4.80;1.40;;;;;;;18.21;53.14;99118.40;219891;1254;139439;-65
2023/07/27 18:59:59;;;;;;;4.90;1.70;;;;;;;17.96;53.73;99118.83;220469;1256;140684;-66
2023/07/27 19:05:04;;;;;;;4.20;2.20;;;;;;;17.74;54.44;99112.16;220794;1254;139893;-66
2023/07/27 19:10:10;;;;;;;5.90;2.70;;;;;;;17.53;54.93;99107.75;220398;1255;141005;-64
2023/07/27 19:15:14;;;;;;;5.20;2.60;;;;;;;17.45;55.43;99106.20;219131;1259;139914;-65
2023/07/27 19:20:21;;;;;;;3.50;2.60;;;;;;;17.33;55.58;99105.94;218658;1259;140709;-64
2023/07/27 19:25:29;;;;;;;4.00;3.30;;;;;;;17.10;56.13;99098.74;218212;1256;139660;-65
2023/07/27 19:30:35;;;;;;;5.30;3.30;;;;;;;16.89;56.68;99098.42;218632;1260;139605;-64
2023/07/27 19:35:42;;;;;;;7.10;4.10;;;;;;;16.65;57.53;99089.16;217897;1259;139415;-65
2023/07/27 19:40:46;;;;;;;7.90;4.50;;;;;;;16.47;57.92;99081.84;217661;1259;139772;-68
2023/07/27 19:45:51;;;;;;;4.10;3.60;;;;;;;16.32;58.33;99079.15;218160;1257;140815;-68
2023/07/27 19:50:56;;;;;;;9.10;4.30;;;;;;;16.24;58.54;99076.00;217765;1257;140704;-67
2023/07/27 19:56:05;;;;;;;6.70;4.30;;;;;;;16.13;58.85;99075.02;218416;1258;139882;-63
2023/07/27 20:01:11;;;;;;;5.80;3.90;;;;;;;15.99;59.38;99066.46;218028;1260;140116;-66
2023/07/27 20:06:19;;;;;;;8.70;5.20;;;;;;;15.85;59.97;99066.30;217851;1260;139245;-65
2023/07/27 20:11:22;;;;;;;9.00;4.00;;;;;;;15.66;60.33;99064.28;218892;1256;139020;-66
2023/07/27 20:16:29;;;;;;;5.50;4.10;;;;;;;15.49;60.79;99066.69;218790;1256;140404;-65
2023/07/27 20:21:33;;;;;;;8.00;3.70;;;;;;;15.39;61.10;99064.89;218098;1260;140377;-65
2023/07/27 20:26:37;;;;;;;13.50;4.30;;;;;;;15.42;61.32;99058.31;217544;1260;140143;-65
2023/07/27 20:31:41;;;;;;;18.80;3.40;;;;;;;15.45;61.25;99055.23;218868;1256;142174;-63
2023/07/27 20:36:45;;;;;;;5.70;3.70;;;;;;;15.38;61.83;99052.86;217768;1257;144543;-63
2023/07/27 20:41:53;;;;;;;4.10;3.60;;;;;;;15.34;62.34;99052.36;217637;1260;140523;-64
2023/07/27 20:46:57;;;;;;;4.80;3.20;;;;;;;15.33;62.78;99047.75;220293;1257;140285;-65
2023/07/27 20:52:01;;;;;;;8.40;3.50;;;;;;;15.37;63.11;99044.12;217873;1260;140024;-64
2023/07/27 20:57:05;;;;;;;3.90;3.10;;;;;;;15.39;63.19;99037.39;220400;1260;140221;-65
2023/07/27 21:02:10;;;;;;;6.40;3.70;;;;;;;15.41;63.64;99036.23;220349;1260;141772;-67
2023/07/27 21:07:14;;;;;;;2.90;2.50;;;;;;;15.47;63.90;99031.24;219705;1260;140132;-68
2023/07/27 21:12:18;;;;;;;3.60;3.00;;;;;;;15.54;63.79;99034.20;218981;1260;141658;-66
2023/07/27 21:17:23;;;;;;;3.80;2.80;;;;;;;15.59;63.92;99033.53;219261;1260;140744;-67
2023/07/27 21:22:27;;;;;;;2.90;2.70;;;;;;;15.66;64.12;99032.52;219530;1257;142090;-66
2023/07/27 21:27:30;;;;;;;5.10;3.00;;;;;;;15.72;64.01;99027.41;218072;1260;141643;-68
2023/07/27 21:32:34;;;;;;;3.80;2.80;;;;;;;15.78;63.60;99023.80;219030;1260;140901;-65
2023/07/27 21:37:38;;;;;;;4.50;2.60;;;;;;;15.83;63.54;99028.38;218057;1256;140990;-65
2023/07/27 21:42:45;;;;;;;3.80;2.60;;;;;;;15.85;63.24;99027.39;219061;1259;140325;-64
2023/07/27 21:47:49;;;;;;;2.60;2.30;;;;;;;15.84;63.26;99016.45;218490;1260;139974;-67
2023/07/27 21:52:55;;;;;;;3.30;2.40;;;;;;;15.83;62.99;99010.58;218514;1260;141521;-65
2023/07/27 21:57:58;;;;;;;3.20;2.90;;;;;;;15.88;62.60;99007.48;219163;1259;140057;-65
2023/07/27 22:03:04;;;;;;;4.20;2.90;;;;;;;15.90;62.36;99004.09;217586;1257;140679;-66
2023/07/27 22:08:08;;;;;;;3.30;3.00;;;;;;;15.95;61.91;98998.92;218143;1260;139997;-70
2023/07/27 22:13:12;;;;;;;6.50;3.50;;;;;;;16.03;61.64;98996.36;218624;1257;140005;-68
2023/07/27 22:18:16;;;;;;;6.70;2.60;;;;;;;16.10;61.30;99003.59;217972;1258;139944;-70
2023/07/27 22:23:21;;;;;;;2.50;2.30;;;;;;;16.18;60.91;99003.66;219087;1258;140341;-67
2023/07/27 22:28:25;;;;;;;4.30;3.00;;;;;;;16.22;60.66;98993.04;219340;1257;140856;-68
2023/07/27 22:33:29;;;;;;;4.50;3.20;;;;;;;16.27;60.46;98990.39;218225;1259;140172;-68
2023/07/27 22:38:34;;;;;;;2.50;2.30;;;;;;;16.29;60.34;98991.70;218963;1257;140208;-69
2023/07/27 22:43:37;;;;;;;3.10;2.60;;;;;;;16.29;60.38;98989.23;218369;1257;160324;-67
2023/07/27 22:48:41;;;;;;;4.70;3.60;;;;;;;16.28;60.28;98988.61;218178;1257;139702;-67
2023/07/27 22:53:49;;;;;;;3.50;2.70;;;;;;;16.26;60.23;98982.17;220162;1256;139714;-65
2023/07/27 22:58:53;;;;;;;3.50;2.10;;;;;;;16.26;60.20;98971.36;219377;1257;142167;-65
2023/07/27 23:03:58;;;;;;;4.40;3.10;;;;;;;16.27;60.29;98975.50;219173;1258;139551;-65
2023/07/27 23:09:03;;;;;;;5.10;3.90;;;;;;;16.27;60.22;98968.01;219626;1257;140810;-65
2023/07/27 23:14:07;;;;;;;2.90;2.70;;;;;;;16.27;60.29;98954.73;219683;1257;228322;-64
2023/07/27 23:19:12;;;;;;;4.60;3.60;;;;;;;16.26;60.34;98961.30;217884;1254;139187;-67
2023/07/27 23:24:16;;;;;;;5.40;3.30;;;;;;;16.28;60.44;98965.95;219552;1254;139959;-67